createdAt,value
2024-03-15T00:00:06.613Z,19.68
2024-03-15T00:01:06.609Z,19.68
2024-03-15T00:02:06.710Z,19.68
2024-03-15T00:03:06.794Z,19.68
2024-03-15T00:04:06.857Z,19.68
2024-03-15T00:05:06.942Z,19.67
2024-03-15T00:06:07.090Z,19.67
2024-03-15T00:07:07.114Z,19.68
2024-03-15T00:08:07.197Z,19.68
2024-03-15T00:09:07.314Z,19.67
2024-03-15T00:10:07.408Z,19.67
2024-03-15T00:11:09.954Z,19.67
2024-03-15T00:12:07.518Z,19.67
2024-03-15T00:13:07.485Z,19.67
2024-03-15T00:14:07.485Z,19.66
2024-03-15T00:15:07.527Z,19.65
2024-03-15T00:16:07.506Z,19.66
2024-03-15T00:17:07.492Z,19.66
2024-03-15T00:18:07.578Z,19.66
2024-03-15T00:19:07.622Z,19.65
2024-03-15T00:20:07.525Z,19.66
2024-03-15T00:21:07.559Z,19.67
2024-03-15T00:22:07.512Z,19.66
2024-03-15T00:23:07.517Z,19.65
2024-03-15T00:24:07.543Z,19.65
2024-03-15T00:25:07.510Z,19.65
2024-03-15T00:26:07.524Z,19.65
2024-03-15T00:27:07.552Z,19.65
2024-03-15T00:28:07.532Z,19.64
2024-03-15T00:29:07.566Z,19.64
2024-03-15T00:30:07.557Z,19.64
2024-03-15T00:31:07.532Z,19.65
2024-03-15T00:32:07.550Z,19.65
2024-03-15T00:33:07.588Z,19.64
2024-03-15T00:34:07.569Z,19.65
2024-03-15T00:35:07.571Z,19.65
2024-03-15T00:36:07.604Z,19.64
2024-03-15T00:37:07.563Z,19.64
2024-03-15T00:38:07.548Z,19.64
2024-03-15T00:39:07.599Z,19.64
2024-03-15T00:40:07.548Z,19.64
2024-03-15T00:41:07.539Z,19.64
2024-03-15T00:42:07.627Z,19.64
2024-03-15T00:43:07.542Z,19.64
2024-03-15T00:44:07.553Z,19.64
2024-03-15T00:45:08.278Z,19.64
2024-03-15T00:46:07.552Z,19.63
2024-03-15T00:47:07.565Z,19.64
2024-03-15T00:48:07.714Z,19.64
2024-03-15T00:49:07.650Z,19.63
2024-03-15T00:50:07.609Z,19.63
2024-03-15T00:51:07.666Z,19.63
2024-03-15T00:52:07.618Z,19.63
2024-03-15T00:53:07.599Z,19.63
2024-03-15T00:54:07.672Z,19.63
2024-03-15T00:55:07.738Z,19.63
2024-03-15T00:56:07.792Z,19.63
2024-03-15T00:57:07.864Z,19.63
2024-03-15T00:58:07.981Z,19.62
2024-03-15T00:59:08.022Z,19.63
2024-03-15T01:00:08.146Z,19.62
2024-03-15T01:01:08.217Z,19.62
2024-03-15T01:02:08.253Z,19.62
2024-03-15T01:03:08.402Z,19.62
2024-03-15T01:04:08.418Z,19.62
2024-03-15T01:05:08.503Z,19.62
2024-03-15T01:06:08.613Z,19.62
2024-03-15T01:07:08.670Z,19.62
2024-03-15T01:08:08.753Z,19.62
2024-03-15T01:09:08.810Z,19.61
2024-03-15T01:10:08.885Z,19.61
2024-03-15T01:11:09.000Z,19.61
2024-03-15T01:12:09.048Z,19.62
2024-03-15T01:13:09.116Z,19.61
2024-03-15T01:14:09.196Z,19.61
2024-03-15T01:15:09.325Z,19.61
2024-03-15T01:16:09.347Z,19.61
2024-03-15T01:17:09.442Z,19.61
2024-03-15T01:18:09.587Z,19.61
2024-03-15T01:19:09.602Z,19.61
2024-03-15T01:20:09.770Z,19.60
2024-03-15T01:21:09.758Z,19.61
2024-03-15T01:22:09.839Z,19.61
2024-03-15T01:23:09.866Z,19.60
2024-03-15T01:24:09.974Z,19.61
2024-03-15T01:25:10.057Z,19.60
2024-03-15T01:26:10.106Z,19.61
2024-03-15T01:27:10.175Z,19.60
2024-03-15T01:28:10.223Z,19.60
2024-03-15T01:29:10.303Z,19.60
2024-03-15T01:30:10.423Z,19.60
2024-03-15T01:31:10.429Z,19.60
2024-03-15T01:32:10.537Z,19.60
2024-03-15T01:33:10.620Z,19.59
2024-03-15T01:34:10.660Z,19.60
2024-03-15T01:35:10.715Z,19.59
2024-03-15T01:36:10.820Z,19.59
2024-03-15T01:37:10.882Z,19.59
2024-03-15T01:38:10.952Z,19.59
2024-03-15T01:39:11.056Z,19.59
2024-03-15T01:40:11.125Z,19.59
2024-03-15T01:41:11.200Z,19.59
2024-03-15T01:42:11.305Z,19.59
2024-03-15T01:43:11.346Z,19.59
2024-03-15T01:44:11.423Z,19.59
2024-03-15T01:45:11.512Z,19.59
2024-03-15T01:46:11.556Z,19.59
2024-03-15T01:47:11.645Z,19.59
2024-03-15T01:48:11.763Z,19.59
2024-03-15T01:49:11.813Z,19.59
2024-03-15T01:50:11.878Z,19.59
2024-03-15T01:51:11.973Z,19.59
2024-03-15T01:52:12.026Z,19.59
2024-03-15T01:53:12.074Z,19.59
2024-03-15T01:54:12.279Z,19.59
2024-03-15T01:55:12.208Z,19.59
2024-03-15T01:56:12.294Z,19.59
2024-03-15T01:57:12.373Z,19.58
2024-03-15T01:58:12.405Z,19.58
2024-03-15T01:59:12.452Z,19.59
2024-03-15T02:00:12.555Z,19.58
2024-03-15T02:01:12.630Z,19.58
2024-03-15T02:02:12.689Z,19.58
2024-03-15T02:03:12.777Z,19.57
2024-03-15T02:04:12.838Z,19.57
2024-03-15T02:05:12.941Z,19.58
2024-03-15T02:06:13.033Z,19.57
2024-03-15T02:07:13.066Z,19.57
2024-03-15T02:08:13.154Z,19.58
2024-03-15T02:09:13.293Z,19.57
2024-03-15T02:10:13.467Z,19.57
2024-03-15T02:11:13.489Z,19.57
2024-03-15T02:12:13.528Z,19.57
2024-03-15T02:13:13.536Z,19.57
2024-03-15T02:14:13.620Z,19.56
2024-03-15T02:15:13.707Z,19.57
2024-03-15T02:16:13.767Z,19.57
2024-03-15T02:17:13.859Z,19.57
2024-03-15T02:18:13.984Z,19.57
2024-03-15T02:19:13.982Z,19.57
2024-03-15T02:20:14.084Z,19.56
2024-03-15T02:21:14.187Z,19.57
2024-03-15T02:22:14.201Z,19.57
2024-03-15T02:23:14.275Z,19.56
2024-03-15T02:24:14.381Z,19.56
2024-03-15T02:25:14.515Z,19.56
2024-03-15T02:26:14.487Z,19.56
2024-03-15T02:27:14.741Z,19.56
2024-03-15T02:28:14.586Z,19.56
2024-03-15T02:29:14.600Z,19.56
2024-03-15T02:30:14.683Z,19.56
2024-03-15T02:31:14.647Z,19.56
2024-03-15T02:32:14.690Z,19.56
2024-03-15T02:33:14.754Z,19.56
2024-03-15T02:34:14.714Z,19.55
2024-03-15T02:35:20.277Z,19.56
2024-03-15T02:36:15.741Z,19.55
2024-03-15T02:37:14.733Z,19.56
2024-03-15T02:38:14.740Z,19.55
2024-03-15T02:39:14.776Z,19.55
2024-03-15T02:40:14.786Z,19.55
2024-03-15T02:41:14.741Z,19.55
2024-03-15T02:42:14.786Z,19.56
2024-03-15T02:43:14.753Z,19.54
2024-03-15T02:44:14.790Z,19.55
2024-03-15T02:45:14.821Z,19.55
2024-03-15T02:46:14.769Z,19.54
2024-03-15T02:47:14.760Z,19.55
2024-03-15T02:48:14.937Z,19.54
2024-03-15T02:49:14.898Z,19.54
2024-03-15T02:50:14.986Z,19.55
2024-03-15T02:51:15.089Z,19.54
2024-03-15T02:52:15.130Z,19.55
2024-03-15T02:53:15.175Z,19.54
2024-03-15T02:54:15.440Z,19.54
2024-03-15T02:55:15.311Z,19.54
2024-03-15T02:56:15.393Z,19.53
2024-03-15T02:57:15.482Z,19.54
2024-03-15T02:58:15.535Z,19.54
2024-03-15T02:59:15.593Z,19.54
2024-03-15T03:00:15.879Z,19.54
2024-03-15T03:01:15.758Z,19.54
2024-03-15T03:02:15.789Z,19.54
2024-03-15T03:03:15.890Z,19.54
2024-03-15T03:04:15.934Z,19.54
2024-03-15T03:05:17.106Z,19.54
2024-03-15T03:06:16.032Z,19.54
2024-03-15T03:07:16.027Z,19.54
2024-03-15T03:08:16.065Z,19.53
2024-03-15T03:09:16.123Z,19.53
2024-03-15T03:10:16.132Z,19.54
2024-03-15T03:11:16.117Z,19.53
2024-03-15T03:12:16.243Z,19.53
2024-03-15T03:13:16.305Z,19.53
2024-03-15T03:14:16.309Z,19.53
2024-03-15T03:15:17.969Z,19.53
2024-03-15T03:16:16.320Z,19.52
2024-03-15T03:17:16.359Z,19.53
2024-03-15T03:18:16.426Z,19.53
2024-03-15T03:19:16.395Z,19.52
2024-03-15T03:20:16.424Z,19.53
2024-03-15T03:21:16.492Z,19.52
2024-03-15T03:22:16.555Z,19.52
2024-03-15T03:23:16.516Z,19.52
2024-03-15T03:24:16.841Z,19.52
2024-03-15T03:25:16.608Z,19.52
2024-03-15T03:26:16.603Z,19.52
2024-03-15T03:27:16.782Z,19.52
2024-03-15T03:28:16.669Z,19.51
2024-03-15T03:29:16.697Z,19.52
2024-03-15T03:30:16.823Z,19.51
2024-03-15T03:31:16.782Z,19.52
2024-03-15T03:32:16.798Z,19.51
2024-03-15T03:33:16.915Z,19.51
2024-03-15T03:34:16.835Z,19.51
2024-03-15T03:35:16.906Z,19.52
2024-03-15T03:36:16.938Z,19.51
2024-03-15T03:37:16.938Z,19.51
2024-03-15T03:38:17.012Z,19.51
2024-03-15T03:39:17.024Z,19.51
2024-03-15T03:40:17.163Z,19.51
2024-03-15T03:41:17.026Z,19.51
2024-03-15T03:42:17.100Z,19.51
2024-03-15T03:43:17.136Z,19.51
2024-03-15T03:44:17.191Z,19.51
2024-03-15T03:45:17.572Z,19.50
2024-03-15T03:46:17.325Z,19.50
2024-03-15T03:47:17.412Z,19.51
2024-03-15T03:48:17.555Z,19.50
2024-03-15T03:49:17.511Z,19.50
2024-03-15T03:50:17.573Z,19.50
2024-03-15T03:51:17.654Z,19.51
2024-03-15T03:52:17.670Z,19.49
2024-03-15T03:53:17.757Z,19.50
2024-03-15T03:54:17.862Z,19.49
2024-03-15T03:55:17.860Z,19.49
2024-03-15T03:56:17.918Z,19.49
2024-03-15T03:57:18.085Z,19.49
2024-03-15T03:58:18.088Z,19.49
2024-03-15T03:59:18.119Z,19.50
2024-03-15T04:00:18.837Z,19.50
2024-03-15T04:01:18.993Z,19.50
2024-03-15T04:02:18.290Z,19.49
2024-03-15T04:03:18.428Z,19.50
2024-03-15T04:04:18.397Z,19.49
2024-03-15T04:05:18.458Z,19.49
2024-03-15T04:06:18.569Z,19.49
2024-03-15T04:07:18.565Z,19.49
2024-03-15T04:08:18.711Z,19.49
2024-03-15T04:09:18.661Z,19.48
2024-03-15T04:10:18.699Z,19.48
2024-03-15T04:11:18.807Z,19.47
2024-03-15T04:12:18.842Z,19.48
2024-03-15T04:13:18.871Z,19.48
2024-03-15T04:14:18.910Z,19.47
2024-03-15T04:15:28.499Z,19.47
2024-03-15T04:16:20.110Z,19.47
2024-03-15T04:17:18.980Z,19.47
2024-03-15T04:18:19.056Z,19.48
2024-03-15T04:19:18.985Z,19.48
2024-03-15T04:20:18.971Z,19.47
2024-03-15T04:21:19.034Z,19.48
2024-03-15T04:22:18.986Z,19.47
2024-03-15T04:23:18.990Z,19.47
2024-03-15T04:24:19.023Z,19.47
2024-03-15T04:25:19.053Z,19.47
2024-03-15T04:26:19.103Z,19.47
2024-03-15T04:27:19.226Z,19.47
2024-03-15T04:28:19.137Z,19.47
2024-03-15T04:29:20.765Z,19.47
2024-03-15T04:30:19.233Z,19.46
2024-03-15T04:31:19.153Z,19.46
2024-03-15T04:32:19.142Z,19.46
2024-03-15T04:33:19.288Z,19.46
2024-03-15T04:34:19.177Z,19.45
2024-03-15T04:35:19.639Z,19.46
2024-03-15T04:36:19.303Z,19.45
2024-03-15T04:37:19.299Z,19.46
2024-03-15T04:38:19.341Z,19.46
2024-03-15T04:39:19.426Z,19.45
2024-03-15T04:40:19.408Z,19.46
2024-03-15T04:41:19.435Z,19.45
2024-03-15T04:42:19.493Z,19.46
2024-03-15T04:43:19.497Z,19.46
2024-03-15T04:44:19.523Z,19.45
2024-03-15T04:45:19.587Z,19.45
2024-03-15T04:46:19.600Z,19.46
2024-03-15T04:47:19.633Z,19.45
2024-03-15T04:48:19.727Z,19.45
2024-03-15T04:49:19.710Z,19.46
2024-03-15T04:50:19.745Z,19.45
2024-03-15T04:51:19.854Z,19.45
2024-03-15T04:52:19.811Z,19.45
2024-03-15T04:53:19.851Z,19.45
2024-03-15T04:54:19.927Z,19.44
2024-03-15T04:55:19.932Z,19.44
2024-03-15T04:56:19.951Z,19.45
2024-03-15T04:57:20.054Z,19.45
2024-03-15T04:58:20.035Z,19.45
2024-03-15T04:59:20.084Z,19.45
2024-03-15T05:00:21.232Z,19.44
2024-03-15T05:01:29.738Z,19.41
2024-03-15T05:02:29.812Z,19.43
2024-03-15T05:03:29.733Z,19.43
2024-03-15T05:04:29.719Z,19.43
2024-03-15T05:05:29.716Z,19.42
2024-03-15T05:06:31.619Z,19.44
2024-03-15T05:07:29.740Z,19.43
2024-03-15T05:08:29.770Z,19.43
2024-03-15T05:09:29.924Z,19.43
2024-03-15T05:10:29.872Z,19.43
2024-03-15T05:11:29.744Z,19.43
2024-03-15T05:12:29.761Z,19.43
2024-03-15T05:13:29.737Z,19.42
2024-03-15T05:14:29.732Z,19.43
2024-03-15T05:15:29.820Z,19.43
2024-03-15T05:16:29.779Z,19.43
2024-03-15T05:17:29.864Z,19.42
2024-03-15T05:18:29.916Z,19.43
2024-03-15T05:19:33.240Z,19.43
2024-03-15T05:20:30.896Z,19.42
2024-03-15T05:21:29.934Z,19.42
2024-03-15T05:22:29.894Z,19.43
2024-03-15T05:23:29.898Z,19.42
2024-03-15T05:24:29.917Z,19.42
2024-03-15T05:25:29.913Z,19.42
2024-03-15T05:26:29.891Z,19.42
2024-03-15T05:27:29.959Z,19.42
2024-03-15T05:28:29.908Z,19.42
2024-03-15T05:29:29.907Z,19.41
2024-03-15T05:30:29.990Z,19.42
2024-03-15T05:31:29.981Z,19.42
2024-03-15T05:32:30.067Z,19.42
2024-03-15T05:33:30.107Z,19.42
2024-03-15T05:34:30.092Z,19.42
2024-03-15T05:35:30.151Z,19.42
2024-03-15T05:36:30.186Z,19.42
2024-03-15T05:37:30.461Z,19.42
2024-03-15T05:38:30.268Z,19.42
2024-03-15T05:39:30.324Z,19.41
2024-03-15T05:40:30.361Z,19.41
2024-03-15T05:41:30.389Z,19.41
2024-03-15T05:42:30.398Z,19.42
2024-03-15T05:43:30.384Z,19.41
2024-03-15T05:44:30.414Z,19.42
2024-03-15T05:45:30.508Z,19.41
2024-03-15T05:46:30.491Z,19.41
2024-03-15T05:47:30.538Z,19.40
2024-03-15T05:48:30.666Z,19.41
2024-03-15T05:49:30.613Z,19.41
2024-03-15T05:50:30.654Z,19.41
2024-03-15T05:51:30.727Z,19.41
2024-03-15T05:52:30.739Z,19.41
2024-03-15T05:53:30.799Z,19.41
2024-03-15T05:54:30.834Z,19.41
2024-03-15T05:55:30.854Z,19.41
2024-03-15T05:56:30.904Z,19.42
2024-03-15T05:57:31.300Z,19.41
2024-03-15T05:58:30.993Z,19.41
2024-03-15T05:59:31.023Z,19.42
2024-03-15T06:00:31.137Z,19.42
2024-03-15T06:01:31.130Z,19.41
2024-03-15T06:02:31.142Z,19.42
2024-03-15T06:03:31.222Z,19.41
2024-03-15T06:04:31.200Z,19.41
2024-03-15T06:05:31.250Z,19.41
2024-03-15T06:06:31.307Z,19.41
2024-03-15T06:07:31.325Z,19.42
2024-03-15T06:08:31.359Z,19.41
2024-03-15T06:09:31.707Z,19.41
2024-03-15T06:10:31.467Z,19.41
2024-03-15T06:11:31.474Z,19.41
2024-03-15T06:12:31.644Z,19.42
2024-03-15T06:13:31.546Z,19.42
2024-03-15T06:14:34.261Z,19.41
2024-03-15T06:15:31.698Z,19.41
2024-03-15T06:16:31.585Z,19.41
2024-03-15T06:17:31.621Z,19.41
2024-03-15T06:18:31.687Z,19.41
2024-03-15T06:19:31.594Z,19.40
2024-03-15T06:20:31.591Z,19.40
2024-03-15T06:21:31.645Z,19.41
2024-03-15T06:22:31.603Z,19.41
2024-03-15T06:23:31.618Z,19.41
2024-03-15T06:24:31.652Z,19.40
2024-03-15T06:25:31.620Z,19.40
2024-03-15T06:26:31.602Z,19.40
2024-03-15T06:27:31.635Z,19.40
2024-03-15T06:28:31.618Z,19.40
2024-03-15T06:29:31.607Z,19.40
2024-03-15T06:30:31.703Z,19.40
2024-03-15T06:31:31.614Z,19.41
2024-03-15T06:32:31.676Z,19.40
2024-03-15T06:33:31.670Z,19.40
2024-03-15T06:34:31.616Z,19.41
2024-03-15T06:35:31.629Z,19.40
2024-03-15T06:36:31.752Z,19.40
2024-03-15T06:37:31.626Z,19.40
2024-03-15T06:38:31.694Z,19.40
2024-03-15T06:39:31.697Z,19.40
2024-03-15T06:40:31.620Z,19.41
2024-03-15T06:41:31.624Z,19.41
2024-03-15T06:42:31.629Z,19.40
2024-03-15T06:43:31.637Z,19.41
2024-03-15T06:44:31.658Z,19.40
2024-03-15T06:45:31.809Z,19.41
2024-03-15T06:46:31.759Z,19.40
2024-03-15T06:47:31.862Z,19.41
2024-03-15T06:48:31.884Z,19.40
2024-03-15T06:49:31.895Z,19.41
2024-03-15T06:50:31.955Z,19.40
2024-03-15T06:51:32.036Z,19.40
2024-03-15T06:52:32.020Z,19.40
2024-03-15T06:53:32.085Z,19.41
2024-03-15T06:54:32.162Z,19.41
2024-03-15T06:55:32.173Z,19.40
2024-03-15T06:56:32.209Z,19.40
2024-03-15T06:57:32.298Z,19.40
2024-03-15T06:58:32.347Z,19.40
2024-03-15T06:59:32.341Z,19.40
2024-03-15T07:00:32.416Z,19.40
2024-03-15T07:01:32.543Z,19.40
2024-03-15T07:02:32.511Z,19.41
2024-03-15T07:03:32.604Z,19.40
2024-03-15T07:04:32.584Z,19.41
2024-03-15T07:05:32.624Z,19.40
2024-03-15T07:06:32.726Z,19.40
2024-03-15T07:07:32.726Z,19.40
2024-03-15T07:08:32.773Z,19.40
2024-03-15T07:09:32.846Z,19.40
2024-03-15T07:10:32.843Z,19.40
2024-03-15T07:11:32.966Z,19.41
2024-03-15T07:12:32.986Z,19.40
2024-03-15T07:13:32.983Z,19.40
2024-03-15T07:14:33.026Z,19.40
2024-03-15T07:15:33.131Z,19.41
2024-03-15T07:16:33.467Z,19.40
2024-03-15T07:17:33.275Z,19.40
2024-03-15T07:18:33.423Z,19.40
2024-03-15T07:19:33.304Z,19.41
2024-03-15T07:20:33.299Z,19.41
2024-03-15T07:21:33.359Z,19.41
2024-03-15T07:22:33.483Z,19.41
2024-03-15T07:23:33.434Z,19.41
2024-03-15T07:24:33.550Z,19.41
2024-03-15T07:25:33.512Z,19.41
2024-03-15T07:26:33.548Z,19.41
2024-03-15T07:27:33.641Z,19.41
2024-03-15T07:28:33.630Z,19.40
2024-03-15T07:29:33.716Z,19.41
2024-03-15T07:30:33.766Z,19.40
2024-03-15T07:31:33.760Z,19.41
2024-03-15T07:32:33.815Z,19.41
2024-03-15T07:33:33.949Z,19.41
2024-03-15T07:34:33.926Z,19.41
2024-03-15T07:35:33.982Z,19.41
2024-03-15T07:36:34.103Z,19.41
2024-03-15T07:37:33.994Z,19.42
2024-03-15T07:38:34.002Z,19.42
2024-03-15T07:39:34.073Z,19.42
2024-03-15T07:40:34.023Z,19.42
2024-03-15T07:41:34.247Z,19.42
2024-03-15T07:42:34.075Z,19.42
2024-03-15T07:43:34.197Z,19.42
2024-03-15T07:44:34.179Z,19.42
2024-03-15T07:45:34.204Z,19.42
2024-03-15T07:46:34.208Z,19.43
2024-03-15T07:47:34.267Z,19.42
2024-03-15T07:48:34.320Z,19.42
2024-03-15T07:49:34.368Z,19.42
2024-03-15T07:50:34.385Z,19.42
2024-03-15T07:51:34.536Z,19.43
2024-03-15T07:52:34.473Z,19.43
2024-03-15T07:53:34.494Z,19.43
2024-03-15T07:54:34.591Z,19.43
2024-03-15T07:55:34.588Z,19.41
2024-03-15T07:56:34.658Z,19.42
2024-03-15T07:57:34.701Z,19.43
2024-03-15T07:58:34.855Z,19.43
2024-03-15T07:59:34.804Z,19.43
2024-03-15T08:00:34.867Z,19.44
2024-03-15T08:01:35.052Z,19.46
2024-03-15T08:02:34.970Z,19.47
2024-03-15T08:03:35.070Z,19.48
2024-03-15T08:04:37.588Z,19.49
2024-03-15T08:05:35.129Z,19.50
2024-03-15T08:06:35.187Z,19.51
2024-03-15T08:07:35.087Z,19.51
2024-03-15T08:08:35.160Z,19.53
2024-03-15T08:09:35.201Z,19.53
2024-03-15T08:10:35.275Z,19.54
2024-03-15T08:11:35.184Z,19.56
2024-03-15T08:12:35.201Z,19.56
2024-03-15T08:13:35.110Z,19.57
2024-03-15T08:14:35.133Z,19.57
2024-03-15T08:15:35.184Z,19.58
2024-03-15T08:16:35.486Z,19.58
2024-03-15T08:17:35.162Z,19.59
2024-03-15T08:18:35.279Z,19.60
2024-03-15T08:19:35.132Z,19.60
2024-03-15T08:20:35.173Z,19.61
2024-03-15T08:21:35.139Z,19.61
2024-03-15T08:22:35.128Z,19.62
2024-03-15T08:23:35.153Z,19.63
2024-03-15T08:24:35.321Z,19.63
2024-03-15T08:25:35.165Z,19.64
2024-03-15T08:26:35.201Z,19.64
2024-03-15T08:27:35.195Z,19.65
2024-03-15T08:28:35.242Z,19.65
2024-03-15T08:29:35.173Z,19.66
2024-03-15T08:30:35.265Z,19.66
2024-03-15T08:31:35.186Z,19.66
2024-03-15T08:32:35.219Z,19.67
2024-03-15T08:33:35.323Z,19.67
2024-03-15T08:34:35.298Z,19.68
2024-03-15T08:35:35.175Z,19.68
2024-03-15T08:36:35.375Z,19.68
2024-03-15T08:37:35.194Z,19.68
2024-03-15T08:38:35.292Z,19.69
2024-03-15T08:39:35.374Z,19.69
2024-03-15T08:40:35.500Z,19.70
2024-03-15T08:41:35.503Z,19.70
2024-03-15T08:42:35.791Z,19.71
2024-03-15T08:43:35.681Z,19.71
2024-03-15T08:44:35.774Z,19.71
2024-03-15T08:45:35.878Z,19.72
2024-03-15T08:46:35.941Z,19.70
2024-03-15T08:47:50.104Z,19.70
2024-03-15T08:48:37.111Z,19.71
2024-03-15T08:49:36.083Z,19.71
2024-03-15T08:50:35.998Z,19.71
2024-03-15T08:51:38.521Z,19.72
2024-03-15T08:52:36.017Z,19.71
2024-03-15T08:53:36.149Z,19.70
2024-03-15T08:54:36.055Z,19.71
2024-03-15T08:55:36.016Z,19.69
2024-03-15T08:56:36.023Z,19.69
2024-03-15T08:57:36.035Z,19.68
2024-03-15T08:58:36.033Z,19.67
2024-03-15T08:59:36.052Z,19.66
2024-03-15T09:00:36.073Z,19.66
2024-03-15T09:01:36.069Z,19.65
2024-03-15T09:02:36.029Z,19.63
2024-03-15T09:03:39.659Z,19.63
2024-03-15T09:04:36.043Z,19.63
2024-03-15T09:05:36.032Z,19.62
2024-03-15T09:06:36.101Z,19.62
2024-03-15T09:07:36.102Z,19.61
2024-03-15T09:08:36.091Z,19.61
2024-03-15T09:09:36.070Z,19.61
2024-03-15T09:10:36.909Z,19.60
2024-03-15T09:11:36.089Z,19.61
2024-03-15T09:12:36.105Z,19.61
2024-03-15T09:13:38.326Z,19.61
2024-03-15T09:14:36.131Z,19.60
2024-03-15T09:15:36.129Z,19.60
2024-03-15T09:16:36.104Z,19.60
2024-03-15T09:17:36.163Z,19.60
2024-03-15T09:18:36.196Z,19.61
2024-03-15T09:19:36.124Z,19.61
2024-03-15T09:20:36.077Z,19.60
2024-03-15T09:21:36.092Z,19.60
2024-03-15T09:22:36.080Z,19.60
2024-03-15T09:23:36.086Z,19.60
2024-03-15T09:24:36.115Z,19.60
2024-03-15T09:25:36.077Z,19.60
2024-03-15T09:26:36.099Z,19.59
2024-03-15T09:27:36.794Z,19.59
2024-03-15T09:28:38.934Z,19.59
2024-03-15T09:29:36.127Z,19.58
2024-03-15T09:30:39.440Z,19.59
2024-03-15T09:31:52.396Z,19.58
2024-03-15T09:32:37.314Z,19.58
2024-03-15T09:33:36.914Z,19.58
2024-03-15T09:34:36.223Z,19.57
2024-03-15T09:35:36.185Z,19.58
2024-03-15T09:36:36.240Z,19.58
2024-03-15T09:37:36.179Z,19.58
2024-03-15T09:38:36.203Z,19.57
2024-03-15T09:39:43.581Z,19.54
2024-03-15T09:40:43.564Z,19.56
2024-03-15T09:41:43.564Z,19.56
2024-03-15T09:42:43.602Z,19.56
2024-03-15T09:43:43.575Z,19.57
2024-03-15T09:44:43.613Z,19.57
2024-03-15T09:45:43.636Z,19.57
2024-03-15T09:46:43.639Z,19.58
2024-03-15T09:47:43.768Z,19.58
2024-03-15T09:48:43.662Z,19.57
2024-03-15T09:49:43.629Z,19.58
2024-03-15T09:50:43.706Z,19.58
2024-03-15T09:51:43.823Z,19.59
2024-03-15T09:52:43.642Z,19.59
2024-03-15T09:53:43.622Z,19.59
2024-03-15T09:54:43.679Z,19.60
2024-03-15T09:55:43.637Z,19.59
2024-03-15T09:56:43.634Z,19.59
2024-03-15T09:57:43.781Z,19.60
2024-03-15T09:58:43.648Z,19.60
2024-03-15T09:59:43.653Z,19.60
2024-03-15T10:00:43.684Z,19.60
2024-03-15T10:01:43.724Z,19.61
2024-03-15T10:02:43.768Z,19.60
2024-03-15T10:03:43.764Z,19.59
2024-03-15T10:04:43.685Z,19.59
2024-03-15T10:05:43.693Z,19.58
2024-03-15T10:06:43.817Z,19.59
2024-03-15T10:07:43.740Z,19.60
2024-03-15T10:08:43.690Z,19.60
2024-03-15T10:09:43.729Z,19.60
2024-03-15T10:10:43.694Z,19.61
2024-03-15T10:11:43.676Z,19.61
2024-03-15T10:12:43.793Z,19.61
2024-03-15T10:13:43.879Z,19.61
2024-03-15T10:14:43.709Z,19.61
2024-03-15T10:15:43.781Z,19.61
2024-03-15T10:16:43.748Z,19.61
2024-03-15T10:17:44.073Z,19.62
2024-03-15T10:18:44.004Z,19.61
2024-03-15T10:19:44.163Z,19.61
2024-03-15T10:20:44.153Z,19.61
2024-03-15T10:21:44.324Z,19.61
2024-03-15T10:22:44.416Z,19.61
2024-03-15T10:23:44.424Z,19.61
2024-03-15T10:24:44.574Z,19.61
2024-03-15T10:25:44.687Z,19.62
2024-03-15T10:26:44.748Z,19.61
2024-03-15T10:27:45.001Z,19.61
2024-03-15T10:28:44.936Z,19.61
2024-03-15T10:29:45.094Z,19.61
2024-03-15T10:30:45.191Z,19.62
2024-03-15T10:31:45.198Z,19.62
2024-03-15T10:32:45.355Z,19.62
2024-03-15T10:33:45.466Z,19.62
2024-03-15T10:34:45.510Z,19.63
2024-03-15T10:35:45.620Z,19.62
2024-03-15T10:36:45.734Z,19.62
2024-03-15T10:37:45.811Z,19.63
2024-03-15T10:38:45.917Z,19.64
2024-03-15T10:39:45.985Z,19.64
2024-03-15T10:40:46.113Z,19.63
2024-03-15T10:41:47.906Z,19.64
2024-03-15T10:42:46.245Z,19.64
2024-03-15T10:43:46.201Z,19.64
2024-03-15T10:44:46.158Z,19.63
2024-03-15T10:45:46.208Z,19.64
2024-03-15T10:46:46.206Z,19.65
2024-03-15T10:47:46.248Z,19.64
2024-03-15T10:48:46.333Z,19.64
2024-03-15T10:49:46.326Z,19.64
2024-03-15T10:50:46.211Z,19.64
2024-03-15T10:51:46.383Z,19.65
2024-03-15T10:52:46.246Z,19.64
2024-03-15T10:53:46.204Z,19.65
2024-03-15T10:54:46.256Z,19.64
2024-03-15T10:55:46.240Z,19.64
2024-03-15T10:56:46.213Z,19.65
2024-03-15T10:57:46.277Z,19.65
2024-03-15T10:58:46.212Z,19.66
2024-03-15T10:59:46.215Z,19.66
2024-03-15T11:00:46.385Z,19.66
2024-03-15T11:01:46.376Z,19.68
2024-03-15T11:02:46.267Z,19.70
2024-03-15T11:03:46.257Z,19.72
2024-03-15T11:04:46.272Z,19.75
2024-03-15T11:05:46.214Z,19.78
2024-03-15T11:06:46.723Z,19.80
2024-03-15T11:07:46.262Z,19.83
2024-03-15T11:08:46.281Z,19.86
2024-03-15T11:09:46.232Z,19.88
2024-03-15T11:10:46.288Z,19.91
2024-03-15T11:11:46.277Z,19.92
2024-03-15T11:12:46.460Z,19.94
2024-03-15T11:13:46.508Z,19.96
2024-03-15T11:14:46.632Z,19.99
2024-03-15T11:15:46.883Z,20.00
2024-03-15T11:16:46.905Z,20.03
2024-03-15T11:17:47.027Z,20.04
2024-03-15T11:18:47.194Z,20.07
2024-03-15T11:19:47.289Z,20.08
2024-03-15T11:20:47.430Z,20.11
2024-03-15T11:21:47.504Z,20.13
2024-03-15T11:22:47.630Z,20.14
2024-03-15T11:23:48.099Z,20.16
2024-03-15T11:24:47.802Z,20.17
2024-03-15T11:25:47.957Z,20.18
2024-03-15T11:26:48.036Z,20.20
2024-03-15T11:27:48.194Z,20.20
2024-03-15T11:28:48.266Z,20.22
2024-03-15T11:29:48.381Z,20.23
2024-03-15T11:30:48.592Z,20.24
2024-03-15T11:31:48.602Z,20.25
2024-03-15T11:32:48.900Z,20.25
2024-03-15T11:33:48.986Z,20.24
2024-03-15T11:34:49.018Z,20.24
2024-03-15T11:35:49.070Z,20.24
2024-03-15T11:36:49.244Z,20.24
2024-03-15T11:37:49.313Z,20.23
2024-03-15T11:38:49.441Z,20.21
2024-03-15T11:39:49.566Z,20.21
2024-03-15T11:40:49.702Z,20.21
2024-03-15T11:41:49.787Z,20.21
2024-03-15T11:42:56.199Z,20.21
2024-03-15T11:43:51.116Z,20.19
2024-03-15T11:44:49.924Z,20.18
2024-03-15T11:45:49.955Z,20.17
2024-03-15T11:46:49.923Z,20.15
2024-03-15T11:47:49.953Z,20.14
2024-03-15T11:48:50.000Z,20.13
2024-03-15T11:49:49.947Z,20.11
2024-03-15T11:50:50.311Z,20.09
2024-03-15T11:51:50.042Z,20.08
2024-03-15T11:52:50.030Z,20.07
2024-03-15T11:53:50.237Z,20.07
2024-03-15T11:54:50.207Z,20.05
2024-03-15T11:55:50.177Z,20.05
2024-03-15T11:56:50.264Z,20.04
2024-03-15T11:57:50.317Z,20.03
2024-03-15T11:58:50.411Z,20.02
2024-03-15T11:59:50.364Z,20.01
2024-03-15T12:00:50.519Z,20.00
2024-03-15T12:01:50.510Z,19.99
2024-03-15T12:02:50.611Z,19.98
2024-03-15T12:03:50.834Z,19.98
2024-03-15T12:04:50.828Z,19.98
2024-03-15T12:05:50.978Z,19.96
2024-03-15T12:06:51.121Z,19.97
2024-03-15T12:07:51.213Z,19.97
2024-03-15T12:08:51.275Z,19.96
2024-03-15T12:09:51.467Z,19.96
2024-03-15T12:10:51.680Z,19.96
2024-03-15T12:11:51.678Z,19.95
2024-03-15T12:12:51.837Z,19.95
2024-03-15T12:13:51.845Z,19.95
2024-03-15T12:14:51.951Z,19.94
2024-03-15T12:15:52.330Z,19.94
2024-03-15T12:16:52.257Z,19.94
2024-03-15T12:17:52.423Z,19.94
2024-03-15T12:18:52.589Z,19.94
2024-03-15T12:19:52.502Z,19.94
2024-03-15T12:20:52.646Z,19.94
2024-03-15T12:21:52.857Z,19.93
2024-03-15T12:22:52.838Z,19.94
2024-03-15T12:23:52.952Z,19.93
2024-03-15T12:24:53.132Z,19.93
2024-03-15T12:25:53.753Z,19.93
2024-03-15T12:26:53.278Z,19.93
2024-03-15T12:27:53.597Z,19.93
2024-03-15T12:28:53.526Z,19.93
2024-03-15T12:29:53.642Z,19.93
2024-03-15T12:30:53.772Z,19.92
2024-03-15T12:31:53.838Z,19.93
2024-03-15T12:32:53.949Z,19.92
2024-03-15T12:33:54.069Z,19.92
2024-03-15T12:34:54.141Z,19.92
2024-03-15T12:35:54.264Z,19.92
2024-03-15T12:36:54.406Z,19.92
2024-03-15T12:37:54.479Z,19.92
2024-03-15T12:38:54.582Z,19.92
2024-03-15T12:39:54.715Z,19.92
2024-03-15T12:40:54.787Z,19.92
2024-03-15T12:41:54.903Z,19.92
2024-03-15T12:42:55.027Z,19.92
2024-03-15T12:43:55.107Z,19.93
2024-03-15T12:44:55.195Z,19.92
2024-03-15T12:45:55.372Z,19.92
2024-03-15T12:46:55.425Z,19.92
2024-03-15T12:47:55.569Z,19.92
2024-03-15T12:48:55.684Z,19.92
2024-03-15T12:49:55.735Z,19.91
2024-03-15T12:50:55.839Z,19.92
2024-03-15T12:51:56.041Z,19.91
2024-03-15T12:52:56.056Z,19.92